Healing, United Kingdom
Current Conditions -  °F | °C
As of 2:20 AM on Sunday 21 Dec 2014 (Local Time) from EGNJ Reporting Station
Few Clouds Few Clouds  
Wind Chill: 34°   Ceiling: Unl
Heat Index: 41°   Visibility: 6mi
Dew Point: 39°   Wind: 13mph
Humidity: 93%   Direction: 200°SSW
Pressure: 30.3"   Gusts: NA
Location:  53.58°N, 0.16°W
Report Text: EGNJ 210220Z AUTO 20011KT 9999 FEW039/// 05/04 Q1026
Loading
Personal Weather Stations






























Interactive Weather Map New forecast layout! Learn more

10-Day Weather Forecast

Advertisements
Track Severe Weather on mobile